Ciudad Central Ii, Puerto Rico
Current Conditions -  °F | °C
As of 12:56 AM on Monday 20 Oct 2014 (Local Time) from TJSJ Reporting Station
Scattered Clouds Scattered Clouds  
Wind Chill: 81°   Ceiling: Unl
Heat Index: 87°   Visibility: 10mi
Dew Point: 75°   Wind: 0mph
Humidity: 82%   Direction: NA
Pressure: 29.95"   Gusts: NA
Location:  18.4083°N, 65.981°W
Report Text: TJSJ 200456Z 00000KT 10SM FEW022 SCT040 27/24 A2995 RMK AO2 SLP141 T02720239
Loading
Personal Weather Stations






























Interactive Weather Map
Tropical Storm Tracking
New forecast layout! Learn more

10-Day Weather Forecast

Advertisements
Track Severe Weather on mobile